Time;durP1;ratioP1;P1;durP2;ratioP2;P2;SDS_P1;SDS_P2;PMS_P1;PMS_P2;Temp;Humidity;BMP_temperature;BMP_pressure;BME280_temperature;BME280_humidity;BME280_pressure;Samples;Min_cycle;Max_cycle;Signal;HPM_P1;HPM_P2
2023/12/24 00:00:10;;;;;;;3.95;0.65;;;;;;;10.58;47.55;98319.41;4977657;28;20118;-93
2023/12/24 00:02:35;;;;;;;1.17;0.80;;;;;;;10.55;47.16;98339.63;4961162;28;20110;-92
2023/12/24 00:05:01;;;;;;;1.00;0.80;;;;;;;10.66;46.89;98311.44;4944667;28;20035;-92
2023/12/24 00:07:27;;;;;;;1.15;0.60;;;;;;;10.75;46.80;98338.53;4945452;28;20038;-92
2023/12/24 00:09:52;;;;;;;0.98;0.68;;;;;;;10.81;46.69;98331.97;4960639;28;20386;-92
2023/12/24 00:12:18;;;;;;;1.25;0.80;;;;;;;10.66;46.76;98313.34;4961111;28;20031;-92
2023/12/24 00:14:43;;;;;;;0.88;0.60;;;;;;;10.69;46.63;98310.09;4946027;28;20454;-92
2023/12/24 00:17:09;;;;;;;2.85;0.70;;;;;;;10.80;46.14;98343.00;4945913;28;20377;-93
2023/12/24 00:19:34;;;;;;;3.50;0.70;;;;;;;10.72;46.09;98314.88;4977065;28;20023;-92
2023/12/24 00:22:02;;;;;;;1.75;0.70;;;;;;;10.96;45.89;98365.06;4944476;28;20029;-93
2023/12/24 00:24:27;;;;;;;0.90;0.77;;;;;;;10.83;45.55;98337.03;4944114;28;20042;-92
2023/12/24 00:26:53;;;;;;;1.65;0.65;;;;;;;10.84;45.94;98341.34;4944162;28;20027;-92
2023/12/24 00:29:18;;;;;;;1.35;0.88;;;;;;;10.90;45.69;98335.56;4960040;28;20033;-92
2023/12/24 00:31:44;;;;;;;0.75;0.55;;;;;;;10.92;45.84;98348.72;4976289;28;20026;-93
2023/12/24 00:34:09;;;;;;;0.60;0.50;;;;;;;10.86;46.03;98339.13;4944660;28;20022;-93
2023/12/24 00:36:37;;;;;;;0.63;0.60;;;;;;;10.94;45.50;98381.56;4944767;28;20039;-92
2023/12/24 00:39:04;;;;;;;0.60;0.50;;;;;;;10.99;45.56;98392.22;4976023;28;20022;-92
2023/12/24 00:41:30;;;;;;;0.60;0.50;;;;;;;10.90;45.27;98361.69;4954963;28;20037;-93
2023/12/24 00:43:56;;;;;;;0.57;0.52;;;;;;;10.92;45.48;98362.19;4970095;28;20030;-93
2023/12/24 00:46:21;;;;;;;3.08;0.70;;;;;;;10.83;45.57;98353.19;4965733;28;20019;-93
2023/12/24 00:48:47;;;;;;;3.78;0.80;;;;;;;10.85;45.42;98362.59;4952852;28;20023;-93
2023/12/24 00:51:12;;;;;;;0.70;0.60;;;;;;;10.95;45.53;98380.44;4943746;28;20015;-92
2023/12/24 00:53:38;;;;;;;0.80;0.60;;;;;;;10.96;45.25;98376.66;4944876;28;20039;-92
2023/12/24 00:56:04;;;;;;;0.50;0.50;;;;;;;10.93;44.66;98358.41;4950411;28;20053;-92
2023/12/24 00:58:29;;;;;;;1.23;0.65;;;;;;;11.00;45.10;98385.75;4951631;28;20038;-92
2023/12/24 01:00:57;;;;;;;0.65;0.57;;;;;;;10.88;45.22;98375.44;4945255;28;20043;-93
2023/12/24 01:03:22;;;;;;;1.98;0.70;;;;;;;11.01;45.32;98405.41;4949619;29;20041;-93
2023/12/24 01:05:49;;;;;;;1.42;0.60;;;;;;;10.96;45.02;98395.53;4925269;29;20031;-92
2023/12/24 01:08:14;;;;;;;3.22;0.75;;;;;;;11.13;44.99;98413.81;4940548;29;20054;-92
2023/12/24 01:10:40;;;;;;;2.08;0.60;;;;;;;10.89;44.86;98390.53;4940404;29;20426;-93
2023/12/24 01:13:07;;;;;;;0.88;0.70;;;;;;;11.02;45.32;98399.75;4924858;29;20030;-93
2023/12/24 01:15:32;;;;;;;1.48;0.80;;;;;;;10.91;44.66;98399.13;4924586;29;20028;-92
2023/12/24 01:17:58;;;;;;;0.60;0.55;;;;;;;10.85;45.22;98386.00;4940815;29;20031;-92
2023/12/24 01:20:23;;;;;;;0.82;0.50;;;;;;;10.95;45.10;98411.97;4934330;28;20030;-93
2023/12/24 01:22:49;;;;;;;1.05;0.60;;;;;;;10.86;45.33;98409.16;4953246;28;20038;-93
2023/12/24 01:25:14;;;;;;;0.93;0.65;;;;;;;11.04;45.70;98431.75;4968688;28;20037;-93
2023/12/24 01:27:41;;;;;;;1.85;0.77;;;;;;;10.95;45.34;98431.63;4956604;28;20038;-94
2023/12/24 01:30:08;;;;;;;0.93;0.55;;;;;;;10.88;44.93;98410.47;4941399;28;20035;-94
2023/12/24 01:32:33;;;;;;;1.13;0.70;;;;;;;10.96;45.13;98441.31;4924880;29;20474;-94
2023/12/24 01:34:59;;;;;;;1.02;0.70;;;;;;;10.87;45.76;98454.66;4940290;29;20030;-94
2023/12/24 01:37:24;;;;;;;0.82;0.57;;;;;;;10.80;45.47;98429.97;4925155;29;20050;-94
2023/12/24 01:39:50;;;;;;;5.20;0.70;;;;;;;10.83;45.19;98442.03;4925652;29;20038;-94
2023/12/24 01:42:15;;;;;;;3.47;0.82;;;;;;;10.77;44.84;98427.88;4940380;29;20035;-95
2023/12/24 01:44:41;;;;;;;0.93;0.70;;;;;;;10.90;44.81;98445.97;4925448;29;20023;-95
2023/12/24 01:47:07;;;;;;;1.27;0.70;;;;;;;10.80;45.01;98451.50;4924300;29;20039;-94
2023/12/24 01:49:33;;;;;;;1.17;0.68;;;;;;;10.69;45.03;98432.03;4940639;29;20070;-93
2023/12/24 01:52:01;;;;;;;0.93;0.63;;;;;;;10.78;44.75;98453.69;4929529;28;20030;-94
2023/12/24 01:54:29;;;;;;;2.13;0.70;;;;;;;10.81;45.03;98457.69;4949037;28;20089;-94
2023/12/24 01:56:54;;;;;;;0.60;0.50;;;;;;;10.73;45.00;98440.31;4953355;28;20034;-94
2023/12/24 01:59:20;;;;;;;1.85;0.70;;;;;;;10.83;45.36;98456.31;4954474;28;20035;-94
2023/12/24 02:01:46;;;;;;;0.80;0.60;;;;;;;10.90;44.62;98469.41;4939840;29;20031;-94
2023/12/24 02:04:12;;;;;;;0.65;0.60;;;;;;;10.69;45.13;98458.94;4940760;29;20471;-93
2023/12/24 02:06:37;;;;;;;1.08;0.73;;;;;;;10.66;45.23;98475.66;4923478;28;20043;-95
2023/12/24 02:09:03;;;;;;;0.73;0.50;;;;;;;10.78;44.74;98472.53;4944023;28;20484;-94
2023/12/24 02:11:28;;;;;;;1.38;0.70;;;;;;;10.67;45.15;98471.91;4943074;29;20193;-94
2023/12/24 02:13:54;;;;;;;0.75;0.60;;;;;;;10.67;45.22;98482.66;4927715;29;20044;-94
2023/12/24 02:16:20;;;;;;;1.25;0.60;;;;;;;10.65;44.86;98476.78;4927830;29;20031;-94
2023/12/24 02:18:46;;;;;;;0.70;0.50;;;;;;;10.90;44.85;98482.88;4943994;29;20030;-93
2023/12/24 02:21:11;;;;;;;1.17;0.57;;;;;;;10.76;45.09;98490.09;4943210;29;20031;-94
2023/12/24 02:23:39;;;;;;;0.63;0.60;;;;;;;10.78;44.75;98485.22;4928993;29;20031;-94
2023/12/24 02:26:19;;;;;;;1.10;0.70;;;;;;;10.72;45.02;98474.50;4928275;29;20034;-94
2023/12/24 02:28:44;;;;;;;0.98;0.68;;;;;;;10.71;44.80;98494.47;4929049;29;20035;-94
2023/12/24 02:31:11;;;;;;;0.90;0.70;;;;;;;10.79;45.18;98514.56;4927445;29;20408;-94
2023/12/24 02:33:41;;;;;;;0.80;0.68;;;;;;;10.81;45.09;98519.63;4928171;29;20035;-94
2023/12/24 02:36:08;;;;;;;3.25;0.80;;;;;;;10.76;45.26;98535.88;4929683;29;20481;-94
2023/12/24 02:38:34;;;;;;;0.80;0.60;;;;;;;10.69;44.80;98514.69;4928682;29;20035;-95
2023/12/24 02:41:00;;;;;;;0.57;0.50;;;;;;;10.74;45.36;98524.59;4928828;29;20097;-95
2023/12/24 02:43:26;;;;;;;0.70;0.57;;;;;;;10.79;45.54;98544.16;4928273;29;20031;-94
2023/12/24 02:45:51;;;;;;;2.28;0.70;;;;;;;10.62;45.53;98543.84;4939197;28;20031;-95
2023/12/24 02:48:17;;;;;;;1.17;0.70;;;;;;;10.59;45.69;98544.44;4954093;28;20035;-94
2023/12/24 02:50:44;;;;;;;0.70;0.60;;;;;;;10.56;45.58;98553.88;4953374;28;20022;-94
2023/12/24 02:53:09;;;;;;;1.20;0.65;;;;;;;10.48;45.45;98565.31;4944117;28;20121;-93
2023/12/24 02:55:43;;;;;;;1.00;0.60;;;;;;;10.44;45.91;98557.00;4946840;28;20027;-93
2023/12/24 02:58:09;;;;;;;2.85;0.90;;;;;;;10.41;46.10;98565.63;4947322;28;20469;-94
2023/12/24 03:00:34;;;;;;;2.10;0.80;;;;;;;10.41;46.54;98567.53;4948906;28;20027;-95
2023/12/24 03:03:00;;;;;;;0.98;0.77;;;;;;;10.43;46.85;98582.28;4960056;29;20039;-95
2023/12/24 03:05:25;;;;;;;0.90;0.60;;;;;;;10.42;46.58;98582.59;4943253;28;20023;-95
2023/12/24 03:07:51;;;;;;;1.85;0.82;;;;;;;10.37;46.85;98553.84;4943748;29;20027;-94
2023/12/24 03:10:16;;;;;;;3.08;1.30;;;;;;;10.39;46.97;98573.19;4943746;29;20027;-94
2023/12/24 03:12:42;;;;;;;2.17;0.85;;;;;;;10.33;47.05;98560.88;4943331;28;20102;-94
2023/12/24 03:15:11;;;;;;;1.77;0.80;;;;;;;10.30;46.97;98554.19;4944260;29;20501;-95
2023/12/24 03:17:37;;;;;;;1.13;0.82;;;;;;;10.35;47.13;98576.75;4944700;29;20035;-95
2023/12/24 03:20:02;;;;;;;1.23;0.80;;;;;;;10.19;47.64;98571.50;4942717;28;20031;-95
2023/12/24 03:22:28;;;;;;;1.35;0.70;;;;;;;10.28;47.24;98577.84;4943862;28;20027;-95
2023/12/24 03:24:54;;;;;;;1.20;0.75;;;;;;;10.19;47.57;98571.50;4927718;29;20029;-96
2023/12/24 03:27:19;;;;;;;1.10;0.80;;;;;;;10.18;47.47;98574.47;4943225;28;20023;-96
2023/12/24 03:29:45;;;;;;;2.78;0.80;;;;;;;10.05;47.63;98565.19;4943521;29;20055;-94
2023/12/24 03:32:10;;;;;;;3.90;1.10;;;;;;;10.24;48.18;98587.59;4926778;29;20031;-95
2023/12/24 03:34:36;;;;;;;2.65;1.10;;;;;;;10.07;47.57;98563.81;4943132;28;20035;-95
2023/12/24 03:37:01;;;;;;;1.10;0.70;;;;;;;10.02;47.63;98565.75;4944402;29;20090;-96
2023/12/24 03:39:27;;;;;;;1.52;0.70;;;;;;;10.21;47.67;98614.25;4942209;29;20031;-95
2023/12/24 03:41:52;;;;;;;3.33;0.80;;;;;;;10.15;47.74;98594.69;4942801;29;20454;-95
2023/12/24 03:44:18;;;;;;;1.20;0.90;;;;;;;10.12;47.78;98598.72;4942667;28;20030;-94
2023/12/24 03:46:43;;;;;;;0.80;0.80;;;;;;;10.07;47.86;98595.31;4943266;29;20470;-95
2023/12/24 03:49:10;;;;;;;1.23;0.80;;;;;;;10.11;47.82;98615.97;4942523;28;20490;-94
2023/12/24 03:51:36;;;;;;;1.38;0.77;;;;;;;9.99;47.69;98577.88;4942058;28;20023;-95
2023/12/24 03:54:01;;;;;;;1.88;0.90;;;;;;;10.15;48.09;98599.25;4942772;28;20047;-93
2023/12/24 03:56:27;;;;;;;0.82;0.70;;;;;;;10.14;48.49;98617.28;4942556;29;20071;-94
2023/12/24 03:58:57;;;;;;;1.23;0.68;;;;;;;10.12;47.94;98589.84;4942561;28;20162;-92
2023/12/24 04:01:26;;;;;;;1.38;0.80;;;;;;;10.21;48.00;98619.63;4943925;28;20094;-94
2023/12/24 04:03:52;;;;;;;2.17;0.77;;;;;;;9.99;48.25;98598.59;4941908;29;20117;-94
2023/12/24 04:06:17;;;;;;;1.60;0.90;;;;;;;10.04;48.34;98612.00;4942534;28;20549;-93
2023/12/24 04:08:43;;;;;;;0.77;0.70;;;;;;;10.16;48.31;98623.19;4942745;28;20023;-94
2023/12/24 04:11:13;;;;;;;0.95;0.70;;;;;;;10.06;48.37;98623.28;4927035;29;20046;-95
2023/12/24 04:13:38;;;;;;;1.08;0.77;;;;;;;10.14;47.90;98619.97;4942807;28;20026;-94
2023/12/24 04:16:04;;;;;;;1.02;0.60;;;;;;;10.23;47.70;98615.59;4942279;28;20031;-94
2023/12/24 04:18:30;;;;;;;1.15;0.70;;;;;;;10.18;47.98;98618.31;4925877;29;20023;-93
2023/12/24 04:20:58;;;;;;;1.73;0.80;;;;;;;10.22;47.72;98629.31;4942274;29;20019;-94
2023/12/24 04:23:24;;;;;;;0.80;0.60;;;;;;;10.19;47.85;98633.38;4941566;29;20020;-93
2023/12/24 04:25:49;;;;;;;1.48;0.80;;;;;;;10.11;47.79;98615.16;4926485;29;20030;-96
2023/12/24 04:28:17;;;;;;;1.10;0.75;;;;;;;10.14;48.16;98630.72;4941998;29;20038;-93
2023/12/24 04:30:43;;;;;;;2.38;1.05;;;;;;;10.27;48.32;98666.91;4942102;29;20023;-93
2023/12/24 04:33:08;;;;;;;1.92;0.70;;;;;;;10.12;47.83;98630.22;4926616;29;20049;-93
2023/12/24 04:35:34;;;;;;;1.20;0.80;;;;;;;10.17;47.81;98640.09;4925751;29;20031;-93
2023/12/24 04:38:00;;;;;;;1.15;0.70;;;;;;;10.19;47.26;98662.16;4941305;28;20038;-93
2023/12/24 04:40:25;;;;;;;2.35;0.77;;;;;;;10.20;47.33;98648.41;4941791;29;20094;-91
2023/12/24 04:42:51;;;;;;;2.58;1.23;;;;;;;10.16;47.66;98655.47;4940822;28;20027;-90
2023/12/24 04:45:16;;;;;;;2.03;1.13;;;;;;;10.20;47.15;98653.81;4941704;29;20058;-93
2023/12/24 04:47:42;;;;;;;1.02;0.70;;;;;;;10.18;47.07;98661.34;4926296;29;20027;-93
2023/12/24 04:50:08;;;;;;;1.63;1.00;;;;;;;10.34;47.20;98693.53;4942567;29;20023;-95
2023/12/24 04:52:35;;;;;;;1.50;0.80;;;;;;;10.34;47.09;98713.19;4942437;29;20035;-94
2023/12/24 04:55:10;;;;;;;0.80;0.70;;;;;;;10.32;46.74;98718.84;4941994;28;20043;-93
2023/12/24 04:57:35;;;;;;;3.45;1.23;;;;;;;10.42;46.52;98726.03;4925928;29;20028;-94
2023/12/24 05:00:01;;;;;;;0.85;0.65;;;;;;;10.23;47.00;98712.44;4925233;29;20058;-94
2023/12/24 05:02:27;;;;;;;1.20;0.90;;;;;;;10.34;46.77;98734.72;4941034;28;20035;-95
2023/12/24 05:04:54;;;;;;;1.05;0.70;;;;;;;10.23;47.16;98733.13;4941592;28;20421;-94
2023/12/24 05:07:20;;;;;;;2.08;0.90;;;;;;;10.23;46.47;98727.75;4942238;28;20030;-94
2023/12/24 05:09:46;;;;;;;1.27;0.80;;;;;;;10.14;46.74;98724.88;4941107;29;20023;-95
2023/12/24 05:12:11;;;;;;;1.05;0.70;;;;;;;10.09;46.81;98727.63;4925301;29;20031;-94
2023/12/24 05:14:37;;;;;;;1.58;1.00;;;;;;;10.23;46.76;98746.59;4924946;29;20114;-93
2023/12/24 05:17:05;;;;;;;1.75;1.00;;;;;;;10.25;46.98;98765.94;4941458;28;20031;-95
2023/12/24 05:19:31;;;;;;;1.35;0.88;;;;;;;10.15;46.79;98750.72;4941046;28;20039;-93
2023/12/24 05:21:56;;;;;;;1.85;1.00;;;;;;;10.18;46.74;98771.66;4925382;29;20037;-93
2023/12/24 05:24:22;;;;;;;1.83;0.93;;;;;;;10.29;46.54;98796.59;4940921;29;20043;-94
2023/12/24 05:26:47;;;;;;;1.67;0.98;;;;;;;10.24;46.58;98761.66;4941532;28;20066;-94
2023/12/24 05:29:13;;;;;;;1.60;1.00;;;;;;;10.19;46.56;98751.75;4941006;29;20074;-95
2023/12/24 05:31:42;;;;;;;1.35;0.90;;;;;;;10.19;46.65;98762.50;4941292;28;20122;-94
2023/12/24 05:34:10;;;;;;;3.45;1.10;;;;;;;10.30;46.87;98774.81;4941469;28;20030;-95
2023/12/24 05:36:36;;;;;;;1.25;0.88;;;;;;;10.22;46.87;98775.41;4940272;28;20023;-94
2023/12/24 05:39:03;;;;;;;1.63;1.08;;;;;;;10.24;46.71;98765.16;4941453;28;20035;-94
2023/12/24 05:41:31;;;;;;;2.00;1.00;;;;;;;10.34;46.83;98775.06;4940695;28;20122;-95
2023/12/24 05:44:04;;;;;;;1.92;1.23;;;;;;;10.30;46.63;98774.03;4941766;29;20117;-94
2023/12/24 05:46:30;;;;;;;2.85;1.58;;;;;;;10.32;46.65;98794.19;4941937;29;20026;-93
2023/12/24 05:48:56;;;;;;;3.13;1.40;;;;;;;10.30;46.58;98790.97;4940758;28;20034;-94
2023/12/24 05:51:24;;;;;;;3.10;1.60;;;;;;;10.28;46.71;98797.69;4941061;28;20023;-95
2023/12/24 05:53:49;;;;;;;1.73;1.00;;;;;;;10.29;46.98;98793.91;4940110;28;20055;-95
2023/12/24 05:56:15;;;;;;;3.00;1.20;;;;;;;10.45;46.79;98825.03;4940364;28;20046;-94
2023/12/24 05:58:41;;;;;;;1.70;1.00;;;;;;;10.11;47.18;98795.41;4940191;29;20482;-95
2023/12/24 06:01:06;;;;;;;2.15;1.02;;;;;;;10.18;47.42;98814.69;4925129;29;20062;-94
2023/12/24 06:03:32;;;;;;;1.65;1.10;;;;;;;10.27;47.61;98818.41;4941325;29;20034;-93
2023/12/24 06:05:58;;;;;;;1.95;1.00;;;;;;;10.12;47.52;98805.06;4941050;28;20102;-94
2023/12/24 06:08:23;;;;;;;2.10;1.48;;;;;;;10.22;47.47;98809.56;4940083;29;20058;-93
2023/12/24 06:10:49;;;;;;;1.60;1.00;;;;;;;10.17;47.45;98790.75;4940245;29;20120;-93
2023/12/24 06:13:14;;;;;;;2.28;1.10;;;;;;;10.36;47.16;98824.03;4939932;28;20081;-94
2023/12/24 06:15:40;;;;;;;5.05;1.17;;;;;;;10.37;47.38;98841.78;4939871;29;20505;-94
2023/12/24 06:18:07;;;;;;;3.10;1.30;;;;;;;10.28;47.61;98828.09;4940770;29;20007;-93
2023/12/24 06:20:33;;;;;;;2.33;1.33;;;;;;;10.47;47.35;98851.66;4940234;28;20050;-93
2023/12/24 06:22:59;;;;;;;2.67;1.20;;;;;;;10.45;47.35;98859.22;4941946;28;20038;-95
2023/12/24 06:25:27;;;;;;;2.38;1.52;;;;;;;10.36;47.46;98844.75;4939723;29;20134;-95
2023/12/24 06:27:52;;;;;;;3.55;2.20;;;;;;;10.33;47.27;98840.72;4940447;29;20038;-94
2023/12/24 06:30:19;;;;;;;4.75;2.78;;;;;;;10.40;47.27;98870.84;4940187;28;20020;-94
2023/12/24 06:32:46;;;;;;;5.80;2.95;;;;;;;10.33;47.25;98854.19;4940599;29;20032;-95
2023/12/24 06:35:12;;;;;;;4.47;2.13;;;;;;;10.29;47.06;98843.19;4924797;29;20121;-94
2023/12/24 06:37:37;;;;;;;4.47;2.42;;;;;;;10.46;46.82;98869.72;4924737;29;20027;-92
2023/12/24 06:40:04;;;;;;;4.18;1.15;;;;;;;10.42;46.54;98847.13;4924006;29;20028;-92
2023/12/24 06:42:30;;;;;;;3.90;1.10;;;;;;;10.43;46.89;98851.41;4924288;29;20023;-93
2023/12/24 06:44:55;;;;;;;2.67;1.27;;;;;;;10.42;46.52;98855.22;4939191;29;20035;-94
2023/12/24 06:47:21;;;;;;;1.35;0.90;;;;;;;10.41;46.37;98853.59;4939537;29;20140;-93
2023/12/24 06:49:46;;;;;;;4.00;1.40;;;;;;;10.43;46.13;98859.50;4939651;28;20078;-92
2023/12/24 06:52:15;;;;;;;3.17;1.65;;;;;;;10.67;46.26;98897.28;4940006;28;20118;-94
2023/12/24 06:54:40;;;;;;;3.92;1.70;;;;;;;10.44;46.24;98866.50;4957517;28;20059;-94
2023/12/24 06:57:07;;;;;;;4.40;1.40;;;;;;;10.57;46.20;98883.09;4944078;29;20042;-95
2023/12/24 06:59:32;;;;;;;3.33;1.48;;;;;;;10.51;46.08;98863.47;4943541;29;20073;-93
2023/12/24 07:01:58;;;;;;;4.15;2.08;;;;;;;10.69;46.40;98878.97;4927832;29;20139;-93
2023/12/24 07:04:23;;;;;;;1.83;1.20;;;;;;;10.67;46.30;98875.75;4942717;29;20038;-94
2023/12/24 07:06:49;;;;;;;2.60;1.50;;;;;;;10.55;46.68;98864.53;4943766;28;20027;-94
2023/12/24 07:09:14;;;;;;;2.72;1.20;;;;;;;10.70;46.65;98893.22;4927274;29;20070;-96
2023/12/24 07:11:40;;;;;;;3.35;1.42;;;;;;;10.84;46.17;98896.88;4943181;28;20026;-93
2023/12/24 07:14:06;;;;;;;2.80;1.33;;;;;;;10.76;46.34;98880.53;4943780;28;20039;-94
2023/12/24 07:16:32;;;;;;;2.95;1.20;;;;;;;10.90;46.25;98901.16;4943864;28;20090;-94
2023/12/24 07:18:57;;;;;;;3.42;1.50;;;;;;;10.79;46.39;98880.78;4943016;29;20034;-94
2023/12/24 07:21:23;;;;;;;2.13;1.20;;;;;;;10.92;46.29;98900.88;4944907;28;20038;-94
2023/12/24 07:23:49;;;;;;;13.00;5.85;;;;;;;10.96;45.99;98909.16;4943027;28;20023;-95
2023/12/24 07:26:15;;;;;;;5.60;2.40;;;;;;;10.89;46.03;98902.25;4944499;28;20038;-93
2023/12/24 07:28:41;;;;;;;5.20;2.80;;;;;;;10.84;46.31;98879.94;4943614;29;20055;-94
2023/12/24 07:31:06;;;;;;;3.05;1.77;;;;;;;11.00;45.76;98894.06;4944602;28;20027;-94
2023/12/24 07:33:32;;;;;;;5.60;1.80;;;;;;;11.07;45.90;98908.81;4944971;29;20371;-95
2023/12/24 07:36:00;;;;;;;4.10;2.95;;;;;;;11.07;45.92;98914.19;4943396;28;20035;-94
2023/12/24 07:38:30;;;;;;;3.80;2.03;;;;;;;11.14;45.78;98913.88;4929387;29;20493;-94
2023/12/24 07:40:56;;;;;;;2.50;1.30;;;;;;;11.19;46.21;98921.91;4943881;29;20122;-95
2023/12/24 07:43:24;;;;;;;1.65;1.00;;;;;;;11.12;45.87;98913.34;4927792;29;20067;-94
2023/12/24 07:45:50;;;;;;;2.35;1.17;;;;;;;11.29;45.84;98929.13;4942567;28;20035;-95
2023/12/24 07:48:16;;;;;;;2.35;1.10;;;;;;;11.26;45.63;98922.38;4944286;29;20106;-95
2023/12/24 07:50:42;;;;;;;1.90;1.20;;;;;;;11.27;45.51;98915.13;4942537;28;20055;-95
2023/12/24 07:53:10;;;;;;;3.13;1.35;;;;;;;11.32;45.41;98925.84;4926527;28;20092;-95
2023/12/24 07:55:35;;;;;;;3.03;1.83;;;;;;;11.31;45.36;98913.47;4943275;29;20047;-95
2023/12/24 07:58:01;;;;;;;4.18;1.58;;;;;;;11.29;45.30;98897.56;4942297;28;20031;-94
2023/12/24 08:00:30;;;;;;;3.88;1.38;;;;;;;11.29;45.40;98915.63;4927992;29;20035;-95
2023/12/24 08:02:55;;;;;;;3.10;1.25;;;;;;;11.26;45.39;98919.69;4942624;28;20054;-92
2023/12/24 08:05:23;;;;;;;3.53;1.60;;;;;;;11.41;45.33;98931.41;4942615;28;20024;-94
2023/12/24 08:07:51;;;;;;;3.75;1.25;;;;;;;11.51;45.04;98944.78;4943337;29;20081;-96
2023/12/24 08:10:19;;;;;;;3.78;1.50;;;;;;;11.50;44.79;98944.00;4942318;29;20027;-95
2023/12/24 08:12:47;;;;;;;3.83;1.23;;;;;;;11.55;45.41;98951.22;4942628;29;20031;-94
2023/12/24 08:15:16;;;;;;;5.18;1.67;;;;;;;11.58;45.00;98958.75;4942586;28;20042;-95
2023/12/24 08:17:42;;;;;;;1.80;1.00;;;;;;;11.61;45.12;98951.97;4927264;29;20027;-96
2023/12/24 08:20:08;;;;;;;2.70;1.50;;;;;;;11.52;45.26;98960.69;4925909;29;20024;-94
2023/12/24 08:22:34;;;;;;;5.28;1.70;;;;;;;11.50;44.79;98943.19;4926956;29;20118;-94
2023/12/24 08:25:03;;;;;;;3.75;1.20;;;;;;;11.67;45.66;98984.00;4943357;29;20058;-93
2023/12/24 08:27:28;;;;;;;2.25;1.27;;;;;;;11.65;45.75;98988.06;4943010;28;20034;-94
2023/12/24 08:29:55;;;;;;;6.18;1.88;;;;;;;11.72;45.30;98986.66;4941526;29;20168;-93
2023/12/24 08:32:21;;;;;;;3.85;1.42;;;;;;;11.65;45.43;98985.38;4942061;28;20034;-95
2023/12/24 08:34:47;;;;;;;1.52;1.08;;;;;;;11.46;44.90;98951.03;4942822;29;20118;-95
2023/12/24 08:37:12;;;;;;;1.77;1.08;;;;;;;11.60;44.59;98936.88;4925920;29;20090;-94
2023/12/24 08:39:47;;;;;;;1.50;1.00;;;;;;;11.61;44.64;98927.72;4941062;29;20024;-94
2023/12/24 08:42:15;;;;;;;2.00;1.20;;;;;;;11.69;44.35;98935.19;4944624;28;20027;-94
2023/12/24 08:44:41;;;;;;;1.92;1.23;;;;;;;11.98;44.32;98964.03;4926220;29;20031;-95
2023/12/24 08:47:06;;;;;;;4.28;2.20;;;;;;;11.93;44.21;98949.50;4941870;28;20086;-94
2023/12/24 08:49:35;;;;;;;3.67;2.00;;;;;;;11.86;43.84;98927.41;4941683;29;20027;-95
2023/12/24 08:52:00;;;;;;;3.92;2.08;;;;;;;12.01;44.11;98929.16;4942346;29;20062;-94
2023/12/24 08:54:26;;;;;;;5.70;2.05;;;;;;;12.18;43.85;98955.69;4941763;28;20097;-93
2023/12/24 08:56:53;;;;;;;12.23;4.57;;;;;;;12.08;43.54;98937.72;4941591;28;20031;-94
2023/12/24 08:59:19;;;;;;;6.63;3.88;;;;;;;12.09;43.68;98933.13;4942263;28;20027;-95
2023/12/24 09:01:45;;;;;;;2.25;1.58;;;;;;;12.13;43.75;98953.84;4926970;29;20039;-94
2023/12/24 09:04:14;;;;;;;3.40;1.90;;;;;;;12.04;43.74;98946.69;4927383;29;20046;-95
2023/12/24 09:06:39;;;;;;;6.78;2.55;;;;;;;11.93;44.39;98929.78;4943666;28;20082;-96
2023/12/24 09:09:08;;;;;;;2.97;1.55;;;;;;;11.93;44.51;98952.19;4942265;29;20122;-94
2023/12/24 09:11:34;;;;;;;3.95;2.10;;;;;;;11.84;44.17;98928.81;4944894;28;20035;-93
2023/12/24 09:14:00;;;;;;;2.50;1.50;;;;;;;11.89;44.34;98939.53;4942555;29;20093;-95
2023/12/24 09:16:28;;;;;;;2.80;1.35;;;;;;;11.86;44.30;98940.91;4941183;28;20066;-95
2023/12/24 09:18:57;;;;;;;3.75;1.80;;;;;;;11.90;44.83;98941.16;4942416;28;20035;-95
2023/12/24 09:21:23;;;;;;;5.30;2.58;;;;;;;11.91;44.57;98948.97;4942854;29;20027;-95
2023/12/24 09:23:48;;;;;;;4.05;1.75;;;;;;;11.96;44.43;98950.00;4957976;28;20059;-92
2023/12/24 09:26:14;;;;;;;2.72;1.40;;;;;;;11.93;44.32;98944.09;4925329;29;20406;-95
2023/12/24 09:28:39;;;;;;;3.47;1.80;;;;;;;11.86;44.89;98921.22;4941473;28;20031;-94
2023/12/24 09:31:08;;;;;;;3.28;1.90;;;;;;;11.91;44.84;98913.09;4940671;29;20478;-94
2023/12/24 09:33:34;;;;;;;6.25;2.10;;;;;;;12.12;43.73;98936.03;4941278;29;20094;-94
2023/12/24 09:36:07;;;;;;;4.43;1.60;;;;;;;12.38;43.54;98943.00;4940939;28;20110;-94
2023/12/24 09:38:33;;;;;;;6.70;2.10;;;;;;;12.48;43.18;98913.97;4943172;28;20031;-93
2023/12/24 09:40:58;;;;;;;8.57;3.38;;;;;;;12.57;42.98;98922.19;4941369;29;20110;-95
2023/12/24 09:43:24;;;;;;;6.63;2.03;;;;;;;12.65;42.58;98916.13;4925340;29;20038;-93
2023/12/24 09:49:09;;;;;;;3.65;1.70;;;;;;;12.60;42.45;98891.91;4958059;29;20042;-94
2023/12/24 09:51:38;;;;;;;7.07;3.22;;;;;;;12.67;42.73;98902.34;4942351;28;20039;-94
2023/12/24 09:54:14;;;;;;;8.32;2.67;;;;;;;12.84;42.93;98905.31;4925797;29;20062;-94
2023/12/24 09:56:47;;;;;;;5.78;2.00;;;;;;;12.76;42.52;98908.66;4943851;28;20097;-94
2023/12/24 09:59:14;;;;;;;3.92;1.88;;;;;;;12.84;42.43;98899.09;4943815;28;20466;-94
2023/12/24 10:01:49;;;;;;;4.55;2.15;;;;;;;12.89;42.26;98889.03;4942442;28;20027;-95
2023/12/24 10:04:14;;;;;;;8.88;1.75;;;;;;;12.86;42.28;98868.00;4940809;28;20035;-93
2023/12/24 10:06:56;;;;;;;3.83;1.65;;;;;;;12.96;42.24;98895.94;4941564;28;20126;-96
2023/12/24 10:09:49;;;;;;;3.30;1.70;;;;;;;12.98;42.06;98886.44;4942491;28;20035;-96
2023/12/24 10:12:17;;;;;;;5.70;2.33;;;;;;;13.03;42.18;98883.66;4944895;29;20031;-94
2023/12/24 10:14:58;;;;;;;3.35;1.80;;;;;;;13.08;41.89;98880.06;4940973;29;20027;-95
2023/12/24 10:17:29;;;;;;;6.80;2.40;;;;;;;12.96;42.04;98880.53;4943445;28;20094;-95
2023/12/24 10:19:59;;;;;;;4.72;2.00;;;;;;;13.14;42.11;98900.50;4957424;28;20027;-93
2023/12/24 10:22:25;;;;;;;4.10;1.70;;;;;;;13.17;42.10;98901.81;4956387;28;20027;-96
2023/12/24 10:25:02;;;;;;;3.33;2.08;;;;;;;13.09;42.02;98882.47;4941122;28;20030;-95
2023/12/24 10:27:29;;;;;;;4.43;2.10;;;;;;;13.14;42.14;98868.88;4941022;28;20028;-93
2023/12/24 10:30:07;;;;;;;4.15;2.05;;;;;;;13.22;41.92;98877.38;4943991;28;20023;-95
2023/12/24 10:32:33;;;;;;;2.70;1.90;;;;;;;13.39;41.57;98888.47;4944478;28;20042;-94
2023/12/24 10:34:59;;;;;;;3.05;1.50;;;;;;;13.41;41.50;98890.88;4945359;29;20034;-94
2023/12/24 10:37:29;;;;;;;2.83;1.50;;;;;;;13.30;41.13;98855.09;4944575;29;20035;-94
2023/12/24 10:40:09;;;;;;;3.03;1.67;;;;;;;13.45;41.27;98879.16;4929773;29;20133;-93
2023/12/24 10:42:37;;;;;;;2.15;1.17;;;;;;;13.38;41.44;98873.31;4945013;28;20504;-95
2023/12/24 10:45:09;;;;;;;2.45;1.52;;;;;;;13.58;41.39;98895.69;4944167;29;20118;-95
2023/12/24 10:47:35;;;;;;;2.40;1.55;;;;;;;13.58;41.23;98879.47;4944463;28;20122;-94
2023/12/24 10:50:04;;;;;;;4.05;1.50;;;;;;;13.51;40.84;98866.34;4945178;29;20027;-92
2023/12/24 10:52:33;;;;;;;5.82;1.33;;;;;;;13.54;40.82;98873.84;4945134;28;20027;-93
2023/12/24 10:54:59;;;;;;;3.70;1.20;;;;;;;13.56;40.83;98865.44;4944459;28;20083;-94
2023/12/24 10:57:46;;;;;;;1.27;0.90;;;;;;;13.72;40.60;98875.66;4944517;29;20070;-94
2023/12/24 11:00:12;;;;;;;2.70;1.25;;;;;;;13.67;40.81;98856.00;4975178;28;20391;-93
2023/12/24 11:02:59;;;;;;;2.47;0.90;;;;;;;13.59;40.09;98845.88;4944133;29;20405;-93
2023/12/24 11:05:46;;;;;;;1.70;0.93;;;;;;;13.79;40.30;98861.72;4960052;29;20078;-96
2023/12/24 11:08:21;;;;;;;2.70;1.08;;;;;;;13.87;40.21;98863.72;4976519;28;20098;-95
2023/12/24 11:10:54;;;;;;;6.22;3.28;;;;;;;13.87;40.05;98852.09;4977840;28;20122;-94
2023/12/24 11:13:34;;;;;;;5.10;3.08;;;;;;;13.99;40.28;98854.28;4944041;29;20035;-93
2023/12/24 11:16:02;;;;;;;5.38;2.78;;;;;;;13.96;39.44;98842.13;4976455;28;20035;-94
2023/12/24 11:18:42;;;;;;;2.22;1.10;;;;;;;14.14;39.19;98845.81;4945174;29;20027;-93
2023/12/24 11:21:13;;;;;;;0.88;0.60;;;;;;;14.18;38.90;98846.00;4944146;28;20023;-94
2023/12/24 11:23:42;;;;;;;2.95;1.73;;;;;;;14.22;38.84;98841.59;4931218;29;20118;-94
2023/12/24 11:26:31;;;;;;;2.45;1.25;;;;;;;14.40;38.07;98847.94;4945109;28;20039;-94
2023/12/24 11:28:57;;;;;;;2.10;0.90;;;;;;;14.54;37.75;98840.56;4941937;29;20043;-94
2023/12/24 11:31:24;;;;;;;2.08;1.00;;;;;;;14.69;37.67;98847.53;4943970;28;20489;-95
2023/12/24 11:33:50;;;;;;;2.00;1.00;;;;;;;14.69;37.12;98834.81;4943567;29;20035;-95
2023/12/24 11:36:18;;;;;;;1.60;1.00;;;;;;;14.83;37.44;98836.63;4943141;29;20030;-95